sensor_id;sensor_type;location;lat;lon;timestamp;temperature;humidity
11736;DHT22;5924;51.398;7.088;2023-05-16T00:00:06;10.20;99.90
11736;DHT22;5924;51.398;7.088;2023-05-16T00:02:36;10.10;99.90
11736;DHT22;5924;51.398;7.088;2023-05-16T00:05:04;10.20;99.90
11736;DHT22;5924;51.398;7.088;2023-05-16T00:07:33;10.10;99.90
11736;DHT22;5924;51.398;7.088;2023-05-16T00:09:59;10.10;99.90
11736;DHT22;5924;51.398;7.088;2023-05-16T00:12:24;10.10;99.90
11736;DHT22;5924;51.398;7.088;2023-05-16T00:14:50;10.00;99.90
11736;DHT22;5924;51.398;7.088;2023-05-16T00:17:16;10.00;99.90
11736;DHT22;5924;51.398;7.088;2023-05-16T00:19:45;11.20;99.90
11736;DHT22;5924;51.398;7.088;2023-05-16T00:22:14;10.00;99.90
11736;DHT22;5924;51.398;7.088;2023-05-16T00:24:40;9.90;99.90
11736;DHT22;5924;51.398;7.088;2023-05-16T00:27:06;9.90;99.90
11736;DHT22;5924;51.398;7.088;2023-05-16T00:29:35;9.80;99.90
11736;DHT22;5924;51.398;7.088;2023-05-16T00:32:00;9.80;99.90
11736;DHT22;5924;51.398;7.088;2023-05-16T00:34:26;9.80;99.90
11736;DHT22;5924;51.398;7.088;2023-05-16T00:36:52;9.80;99.90
11736;DHT22;5924;51.398;7.088;2023-05-16T00:39:18;9.70;99.90
11736;DHT22;5924;51.398;7.088;2023-05-16T00:41:44;8.80;99.90
11736;DHT22;5924;51.398;7.088;2023-05-16T00:44:10;9.70;99.90
11736;DHT22;5924;51.398;7.088;2023-05-16T00:46:36;9.60;99.90
11736;DHT22;5924;51.398;7.088;2023-05-16T00:49:02;9.60;99.90
11736;DHT22;5924;51.398;7.088;2023-05-16T00:51:28;9.60;99.90
11736;DHT22;5924;51.398;7.088;2023-05-16T00:53:54;9.60;99.90
11736;DHT22;5924;51.398;7.088;2023-05-16T00:56:21;9.60;99.90
11736;DHT22;5924;51.398;7.088;2023-05-16T00:58:47;9.50;99.90
11736;DHT22;5924;51.398;7.088;2023-05-16T01:01:14;9.50;99.90
11736;DHT22;5924;51.398;7.088;2023-05-16T01:03:41;9.50;99.90
11736;DHT22;5924;51.398;7.088;2023-05-16T01:06:06;9.40;99.90
11736;DHT22;5924;51.398;7.088;2023-05-16T01:08:32;9.40;99.90
11736;DHT22;5924;51.398;7.088;2023-05-16T01:11:09;9.40;99.90
11736;DHT22;5924;51.398;7.088;2023-05-16T01:16:21;9.30;99.90
11736;DHT22;5924;51.398;7.088;2023-05-16T01:24:33;9.10;99.90
11736;DHT22;5924;51.398;7.088;2023-05-16T01:27:05;9.10;99.90
11736;DHT22;5924;51.398;7.088;2023-05-16T01:29:31;9.00;99.90
11736;DHT22;5924;51.398;7.088;2023-05-16T01:31:56;9.00;99.90
11736;DHT22;5924;51.398;7.088;2023-05-16T01:34:23;9.00;99.90
11736;DHT22;5924;51.398;7.088;2023-05-16T01:39:35;8.90;99.90
11736;DHT22;5924;51.398;7.088;2023-05-16T01:42:08;8.90;99.90
11736;DHT22;5924;51.398;7.088;2023-05-16T01:47:12;8.70;99.90
11736;DHT22;5924;51.398;7.088;2023-05-16T01:49:45;8.60;99.90
11736;DHT22;5924;51.398;7.088;2023-05-16T01:52:19;8.60;99.90
11736;DHT22;5924;51.398;7.088;2023-05-16T01:54:51;8.60;99.90
11736;DHT22;5924;51.398;7.088;2023-05-16T01:57:18;8.60;99.90
11736;DHT22;5924;51.398;7.088;2023-05-16T01:59:46;8.50;99.90
11736;DHT22;5924;51.398;7.088;2023-05-16T02:02:11;8.50;99.90
11736;DHT22;5924;51.398;7.088;2023-05-16T02:04:37;8.40;99.90
11736;DHT22;5924;51.398;7.088;2023-05-16T02:07:03;8.40;99.90
11736;DHT22;5924;51.398;7.088;2023-05-16T02:09:28;8.30;99.90
11736;DHT22;5924;51.398;7.088;2023-05-16T02:11:54;8.20;99.90
11736;DHT22;5924;51.398;7.088;2023-05-16T02:14:20;8.20;99.90
11736;DHT22;5924;51.398;7.088;2023-05-16T02:16:46;8.10;99.90
11736;DHT22;5924;51.398;7.088;2023-05-16T02:19:12;9.10;99.90
11736;DHT22;5924;51.398;7.088;2023-05-16T02:21:38;8.00;99.90
11736;DHT22;5924;51.398;7.088;2023-05-16T02:24:04;7.90;99.90
11736;DHT22;5924;51.398;7.088;2023-05-16T02:26:30;7.90;99.90
11736;DHT22;5924;51.398;7.088;2023-05-16T02:28:56;7.90;99.90
11736;DHT22;5924;51.398;7.088;2023-05-16T02:31:40;7.90;99.90
11736;DHT22;5924;51.398;7.088;2023-05-16T02:34:07;7.90;99.90
11736;DHT22;5924;51.398;7.088;2023-05-16T02:36:32;7.90;99.90
11736;DHT22;5924;51.398;7.088;2023-05-16T02:39:00;7.90;99.90
11736;DHT22;5924;51.398;7.088;2023-05-16T02:41:26;7.90;99.90
11736;DHT22;5924;51.398;7.088;2023-05-16T02:43:52;7.90;99.90
11736;DHT22;5924;51.398;7.088;2023-05-16T02:46:34;8.00;99.90
11736;DHT22;5924;51.398;7.088;2023-05-16T02:49:00;8.00;99.90
11736;DHT22;5924;51.398;7.088;2023-05-16T02:51:27;8.00;99.90
11736;DHT22;5924;51.398;7.088;2023-05-16T02:53:53;8.10;99.90
11736;DHT22;5924;51.398;7.088;2023-05-16T02:56:21;8.10;99.90
11736;DHT22;5924;51.398;7.088;2023-05-16T02:58:47;8.10;99.90
11736;DHT22;5924;51.398;7.088;2023-05-16T03:01:14;8.10;99.90
11736;DHT22;5924;51.398;7.088;2023-05-16T03:03:40;8.10;99.90
11736;DHT22;5924;51.398;7.088;2023-05-16T03:06:06;8.20;99.90
11736;DHT22;5924;51.398;7.088;2023-05-16T03:08:32;8.20;99.90
11736;DHT22;5924;51.398;7.088;2023-05-16T03:10:57;8.20;99.90
11736;DHT22;5924;51.398;7.088;2023-05-16T03:13:23;8.20;99.90
11736;DHT22;5924;51.398;7.088;2023-05-16T03:15:49;8.20;99.90
11736;DHT22;5924;51.398;7.088;2023-05-16T03:18:15;8.20;99.90
11736;DHT22;5924;51.398;7.088;2023-05-16T03:20:41;8.10;99.90
11736;DHT22;5924;51.398;7.088;2023-05-16T03:23:06;8.10;99.90
11736;DHT22;5924;51.398;7.088;2023-05-16T03:25:36;8.10;99.90
11736;DHT22;5924;51.398;7.088;2023-05-16T03:28:03;8.10;99.90
11736;DHT22;5924;51.398;7.088;2023-05-16T03:30:29;8.10;99.90
11736;DHT22;5924;51.398;7.088;2023-05-16T03:32:55;8.10;99.90
11736;DHT22;5924;51.398;7.088;2023-05-16T03:35:21;8.00;99.90
11736;DHT22;5924;51.398;7.088;2023-05-16T03:37:47;8.00;99.90
11736;DHT22;5924;51.398;7.088;2023-05-16T03:40:13;7.90;99.90
11736;DHT22;5924;51.398;7.088;2023-05-16T03:42:38;7.90;99.90
11736;DHT22;5924;51.398;7.088;2023-05-16T03:45:05;7.80;99.90
11736;DHT22;5924;51.398;7.088;2023-05-16T03:47:31;7.70;99.90
11736;DHT22;5924;51.398;7.088;2023-05-16T03:49:57;7.70;99.90
11736;DHT22;5924;51.398;7.088;2023-05-16T03:52:23;7.70;99.90
11736;DHT22;5924;51.398;7.088;2023-05-16T03:54:48;7.60;99.90
11736;DHT22;5924;51.398;7.088;2023-05-16T03:57:14;7.60;99.90
11736;DHT22;5924;51.398;7.088;2023-05-16T03:59:40;7.50;99.90
11736;DHT22;5924;51.398;7.088;2023-05-16T04:02:06;7.50;99.90
11736;DHT22;5924;51.398;7.088;2023-05-16T04:04:31;7.50;99.90
11736;DHT22;5924;51.398;7.088;2023-05-16T04:06:57;7.50;99.90
11736;DHT22;5924;51.398;7.088;2023-05-16T04:09:23;8.90;99.90
11736;DHT22;5924;51.398;7.088;2023-05-16T04:11:48;7.40;99.90
11736;DHT22;5924;51.398;7.088;2023-05-16T04:14:14;7.40;99.90
11736;DHT22;5924;51.398;7.088;2023-05-16T04:16:40;7.50;99.90
11736;DHT22;5924;51.398;7.088;2023-05-16T04:19:06;7.40;99.90
11736;DHT22;5924;51.398;7.088;2023-05-16T04:21:32;7.40;99.90
11736;DHT22;5924;51.398;7.088;2023-05-16T04:23:58;7.40;99.90
11736;DHT22;5924;51.398;7.088;2023-05-16T04:26:24;7.40;99.90
11736;DHT22;5924;51.398;7.088;2023-05-16T04:28:50;7.40;99.90
11736;DHT22;5924;51.398;7.088;2023-05-16T04:31:15;7.40;99.90
11736;DHT22;5924;51.398;7.088;2023-05-16T04:33:41;7.40;99.90
11736;DHT22;5924;51.398;7.088;2023-05-16T04:36:07;7.30;99.90
11736;DHT22;5924;51.398;7.088;2023-05-16T04:38:33;7.30;99.90
11736;DHT22;5924;51.398;7.088;2023-05-16T04:40:59;7.20;99.90
11736;DHT22;5924;51.398;7.088;2023-05-16T04:43:26;7.10;99.90
11736;DHT22;5924;51.398;7.088;2023-05-16T04:45:51;7.10;99.90
11736;DHT22;5924;51.398;7.088;2023-05-16T04:48:18;7.10;99.90
11736;DHT22;5924;51.398;7.088;2023-05-16T04:50:44;7.10;99.90
11736;DHT22;5924;51.398;7.088;2023-05-16T04:53:10;7.10;99.90
11736;DHT22;5924;51.398;7.088;2023-05-16T04:55:35;7.10;99.90
11736;DHT22;5924;51.398;7.088;2023-05-16T04:58:01;7.10;99.90
11736;DHT22;5924;51.398;7.088;2023-05-16T05:00:27;7.10;99.90
11736;DHT22;5924;51.398;7.088;2023-05-16T05:02:53;7.10;99.90
11736;DHT22;5924;51.398;7.088;2023-05-16T05:05:19;7.10;99.90
11736;DHT22;5924;51.398;7.088;2023-05-16T05:07:45;7.10;99.90
11736;DHT22;5924;51.398;7.088;2023-05-16T05:10:11;7.10;99.90
11736;DHT22;5924;51.398;7.088;2023-05-16T05:12:36;7.10;99.90
11736;DHT22;5924;51.398;7.088;2023-05-16T05:15:03;7.10;99.90
11736;DHT22;5924;51.398;7.088;2023-05-16T05:17:29;7.10;99.90
11736;DHT22;5924;51.398;7.088;2023-05-16T05:19:55;7.20;99.90
11736;DHT22;5924;51.398;7.088;2023-05-16T05:22:20;7.20;99.90
11736;DHT22;5924;51.398;7.088;2023-05-16T05:24:46;7.10;99.90
11736;DHT22;5924;51.398;7.088;2023-05-16T05:27:12;7.10;99.90
11736;DHT22;5924;51.398;7.088;2023-05-16T05:29:38;7.10;99.90
11736;DHT22;5924;51.398;7.088;2023-05-16T05:32:04;7.10;99.90
11736;DHT22;5924;51.398;7.088;2023-05-16T05:34:29;7.10;99.90
11736;DHT22;5924;51.398;7.088;2023-05-16T05:36:55;7.10;99.90
11736;DHT22;5924;51.398;7.088;2023-05-16T05:39:21;7.10;99.90
11736;DHT22;5924;51.398;7.088;2023-05-16T05:41:47;7.20;99.90
11736;DHT22;5924;51.398;7.088;2023-05-16T05:44:13;7.20;99.90
11736;DHT22;5924;51.398;7.088;2023-05-16T05:46:39;7.20;99.90
11736;DHT22;5924;51.398;7.088;2023-05-16T05:49:05;7.20;99.90
11736;DHT22;5924;51.398;7.088;2023-05-16T05:51:30;7.30;99.90
11736;DHT22;5924;51.398;7.088;2023-05-16T05:53:56;7.30;99.90
11736;DHT22;5924;51.398;7.088;2023-05-16T05:56:22;7.30;99.90
11736;DHT22;5924;51.398;7.088;2023-05-16T05:58:50;7.40;99.90
11736;DHT22;5924;51.398;7.088;2023-05-16T06:01:15;7.40;99.90
11736;DHT22;5924;51.398;7.088;2023-05-16T06:03:42;7.40;99.90
11736;DHT22;5924;51.398;7.088;2023-05-16T06:06:07;7.50;99.90
11736;DHT22;5924;51.398;7.088;2023-05-16T06:08:33;7.50;99.90
11736;DHT22;5924;51.398;7.088;2023-05-16T06:10:59;7.50;99.90
11736;DHT22;5924;51.398;7.088;2023-05-16T06:13:25;7.60;99.90
11736;DHT22;5924;51.398;7.088;2023-05-16T06:15:52;8.00;99.90
11736;DHT22;5924;51.398;7.088;2023-05-16T06:18:18;8.20;99.90
11736;DHT22;5924;51.398;7.088;2023-05-16T06:20:44;7.70;99.90
11736;DHT22;5924;51.398;7.088;2023-05-16T06:23:10;7.80;99.90
11736;DHT22;5924;51.398;7.088;2023-05-16T06:25:35;7.80;99.90
11736;DHT22;5924;51.398;7.088;2023-05-16T06:28:01;7.80;99.90
11736;DHT22;5924;51.398;7.088;2023-05-16T06:30:27;7.80;99.90
11736;DHT22;5924;51.398;7.088;2023-05-16T06:32:52;7.80;99.90
11736;DHT22;5924;51.398;7.088;2023-05-16T06:35:18;7.90;99.90
11736;DHT22;5924;51.398;7.088;2023-05-16T06:37:44;8.00;99.90
11736;DHT22;5924;51.398;7.088;2023-05-16T06:40:10;8.10;99.90
11736;DHT22;5924;51.398;7.088;2023-05-16T06:42:36;8.20;99.90
11736;DHT22;5924;51.398;7.088;2023-05-16T06:45:02;8.30;99.90
11736;DHT22;5924;51.398;7.088;2023-05-16T06:47:28;8.40;99.90
11736;DHT22;5924;51.398;7.088;2023-05-16T06:49:54;8.60;99.90
11736;DHT22;5924;51.398;7.088;2023-05-16T06:52:20;8.70;99.90
11736;DHT22;5924;51.398;7.088;2023-05-16T06:54:46;8.80;99.90
11736;DHT22;5924;51.398;7.088;2023-05-16T06:57:11;8.80;99.90
11736;DHT22;5924;51.398;7.088;2023-05-16T06:59:38;8.80;99.90
11736;DHT22;5924;51.398;7.088;2023-05-16T07:02:04;8.80;99.90
11736;DHT22;5924;51.398;7.088;2023-05-16T07:04:29;8.80;99.90
11736;DHT22;5924;51.398;7.088;2023-05-16T07:06:55;8.90;99.90
11736;DHT22;5924;51.398;7.088;2023-05-16T07:09:21;8.90;99.90
11736;DHT22;5924;51.398;7.088;2023-05-16T07:11:47;8.90;99.90
11736;DHT22;5924;51.398;7.088;2023-05-16T07:14:12;9.00;99.90
11736;DHT22;5924;51.398;7.088;2023-05-16T07:16:38;8.90;99.90
11736;DHT22;5924;51.398;7.088;2023-05-16T07:19:04;8.90;99.90
11736;DHT22;5924;51.398;7.088;2023-05-16T07:21:29;8.80;99.90
11736;DHT22;5924;51.398;7.088;2023-05-16T07:23:55;8.70;99.90
11736;DHT22;5924;51.398;7.088;2023-05-16T07:26:21;8.70;99.90
11736;DHT22;5924;51.398;7.088;2023-05-16T07:28:51;8.60;99.90
11736;DHT22;5924;51.398;7.088;2023-05-16T07:31:17;8.60;99.90
11736;DHT22;5924;51.398;7.088;2023-05-16T07:33:43;8.80;99.90
11736;DHT22;5924;51.398;7.088;2023-05-16T07:36:11;9.00;99.90
11736;DHT22;5924;51.398;7.088;2023-05-16T07:38:37;9.20;99.90
11736;DHT22;5924;51.398;7.088;2023-05-16T07:41:03;9.30;99.90
11736;DHT22;5924;51.398;7.088;2023-05-16T07:43:28;9.60;99.90
11736;DHT22;5924;51.398;7.088;2023-05-16T07:45:54;9.80;99.90
11736;DHT22;5924;51.398;7.088;2023-05-16T07:48:20;10.00;99.90
11736;DHT22;5924;51.398;7.088;2023-05-16T07:50:46;10.20;99.90
11736;DHT22;5924;51.398;7.088;2023-05-16T07:53:12;10.40;99.90
11736;DHT22;5924;51.398;7.088;2023-05-16T07:55:37;10.50;99.90
11736;DHT22;5924;51.398;7.088;2023-05-16T07:58:03;10.70;99.90
11736;DHT22;5924;51.398;7.088;2023-05-16T08:00:29;10.90;99.90
11736;DHT22;5924;51.398;7.088;2023-05-16T08:02:55;10.90;99.90
11736;DHT22;5924;51.398;7.088;2023-05-16T08:05:21;10.90;99.90
11736;DHT22;5924;51.398;7.088;2023-05-16T08:07:48;11.00;99.90
11736;DHT22;5924;51.398;7.088;2023-05-16T08:10:13;11.10;99.90
11736;DHT22;5924;51.398;7.088;2023-05-16T08:12:39;11.30;99.90
11736;DHT22;5924;51.398;7.088;2023-05-16T08:15:05;11.30;99.90
11736;DHT22;5924;51.398;7.088;2023-05-16T08:17:31;11.30;99.90
11736;DHT22;5924;51.398;7.088;2023-05-16T08:19:57;11.40;99.90
11736;DHT22;5924;51.398;7.088;2023-05-16T08:22:25;11.60;99.90
11736;DHT22;5924;51.398;7.088;2023-05-16T08:24:50;11.90;99.90
11736;DHT22;5924;51.398;7.088;2023-05-16T08:27:16;12.20;99.90
11736;DHT22;5924;51.398;7.088;2023-05-16T08:29:42;12.40;99.90
11736;DHT22;5924;51.398;7.088;2023-05-16T08:32:10;12.50;99.90
11736;DHT22;5924;51.398;7.088;2023-05-16T08:34:36;12.40;99.90
11736;DHT22;5924;51.398;7.088;2023-05-16T08:37:02;12.30;99.90
11736;DHT22;5924;51.398;7.088;2023-05-16T08:39:27;12.30;99.90
11736;DHT22;5924;51.398;7.088;2023-05-16T08:42:05;12.10;99.90
11736;DHT22;5924;51.398;7.088;2023-05-16T08:44:33;11.80;99.90
11736;DHT22;5924;51.398;7.088;2023-05-16T08:47:12;11.80;99.90
11736;DHT22;5924;51.398;7.088;2023-05-16T08:49:46;11.70;99.90
11736;DHT22;5924;51.398;7.088;2023-05-16T08:52:20;11.80;99.90
11736;DHT22;5924;51.398;7.088;2023-05-16T08:54:48;11.80;99.90
11736;DHT22;5924;51.398;7.088;2023-05-16T08:57:15;11.80;99.90
11736;DHT22;5924;51.398;7.088;2023-05-16T08:59:41;11.80;99.90
11736;DHT22;5924;51.398;7.088;2023-05-16T09:02:08;11.60;99.90
11736;DHT22;5924;51.398;7.088;2023-05-16T09:04:34;11.50;99.90
11736;DHT22;5924;51.398;7.088;2023-05-16T09:07:01;11.50;99.90
11736;DHT22;5924;51.398;7.088;2023-05-16T09:09:26;11.80;99.90
11736;DHT22;5924;51.398;7.088;2023-05-16T09:11:52;12.10;99.90
11736;DHT22;5924;51.398;7.088;2023-05-16T09:14:18;12.10;99.90
11736;DHT22;5924;51.398;7.088;2023-05-16T09:16:44;11.90;99.90
11736;DHT22;5924;51.398;7.088;2023-05-16T09:19:41;11.90;99.90
11736;DHT22;5924;51.398;7.088;2023-05-16T09:22:14;11.70;99.90
11736;DHT22;5924;51.398;7.088;2023-05-16T09:24:41;11.60;99.90
11736;DHT22;5924;51.398;7.088;2023-05-16T09:27:11;11.90;99.90
11736;DHT22;5924;51.398;7.088;2023-05-16T09:29:40;12.20;99.90
11736;DHT22;5924;51.398;7.088;2023-05-16T09:32:14;12.50;99.90
11736;DHT22;5924;51.398;7.088;2023-05-16T09:34:46;13.00;99.90
11736;DHT22;5924;51.398;7.088;2023-05-16T09:37:14;13.50;99.90
11736;DHT22;5924;51.398;7.088;2023-05-16T09:39:51;13.80;99.90
11736;DHT22;5924;51.398;7.088;2023-05-16T09:42:18;14.20;99.90
11736;DHT22;5924;51.398;7.088;2023-05-16T09:44:53;14.40;99.90
11736;DHT22;5924;51.398;7.088;2023-05-16T09:47:20;14.10;99.90
11736;DHT22;5924;51.398;7.088;2023-05-16T09:49:51;14.00;99.90
11736;DHT22;5924;51.398;7.088;2023-05-16T09:52:17;14.10;99.90
11736;DHT22;5924;51.398;7.088;2023-05-16T09:54:45;12.30;99.90
11736;DHT22;5924;51.398;7.088;2023-05-16T09:57:17;14.50;99.90
11736;DHT22;5924;51.398;7.088;2023-05-16T09:59:44;14.80;99.90
11736;DHT22;5924;51.398;7.088;2023-05-16T10:02:11;15.00;99.90
11736;DHT22;5924;51.398;7.088;2023-05-16T10:04:37;15.00;99.90
11736;DHT22;5924;51.398;7.088;2023-05-16T10:07:04;15.00;99.90
11736;DHT22;5924;51.398;7.088;2023-05-16T10:09:33;15.20;99.90
11736;DHT22;5924;51.398;7.088;2023-05-16T10:12:03;15.60;99.90
11736;DHT22;5924;51.398;7.088;2023-05-16T10:14:36;15.30;99.90
11736;DHT22;5924;51.398;7.088;2023-05-16T10:17:07;14.80;99.90
11736;DHT22;5924;51.398;7.088;2023-05-16T10:19:36;14.40;99.90
11736;DHT22;5924;51.398;7.088;2023-05-16T10:22:04;14.10;99.90
11736;DHT22;5924;51.398;7.088;2023-05-16T10:27:20;13.80;99.90
11736;DHT22;5924;51.398;7.088;2023-05-16T10:29:46;13.90;99.90
11736;DHT22;5924;51.398;7.088;2023-05-16T10:32:14;14.20;99.90
11736;DHT22;5924;51.398;7.088;2023-05-16T10:34:41;14.30;99.90
11736;DHT22;5924;51.398;7.088;2023-05-16T10:37:07;14.50;99.90
11736;DHT22;5924;51.398;7.088;2023-05-16T10:39:35;14.80;99.90
11736;DHT22;5924;51.398;7.088;2023-05-16T10:42:01;15.10;99.90
11736;DHT22;5924;51.398;7.088;2023-05-16T10:44:31;16.60;99.90
11736;DHT22;5924;51.398;7.088;2023-05-16T10:46:58;15.10;99.90
11736;DHT22;5924;51.398;7.088;2023-05-16T10:49:25;14.80;99.90
11736;DHT22;5924;51.398;7.088;2023-05-16T10:54:49;14.40;99.90
11736;DHT22;5924;51.398;7.088;2023-05-16T10:57:18;14.50;99.90
11736;DHT22;5924;51.398;7.088;2023-05-16T10:59:50;14.40;99.90
11736;DHT22;5924;51.398;7.088;2023-05-16T11:02:30;14.40;99.90
11736;DHT22;5924;51.398;7.088;2023-05-16T11:05:00;14.30;99.90
11736;DHT22;5924;51.398;7.088;2023-05-16T11:07:34;14.30;99.90
11736;DHT22;5924;51.398;7.088;2023-05-16T11:10:14;14.30;99.90
11736;DHT22;5924;51.398;7.088;2023-05-16T11:15:19;14.40;99.90
11736;DHT22;5924;51.398;7.088;2023-05-16T11:17:45;14.50;99.90
11736;DHT22;5924;51.398;7.088;2023-05-16T11:20:40;14.30;99.90
11736;DHT22;5924;51.398;7.088;2023-05-16T11:25:42;14.30;99.90
11736;DHT22;5924;51.398;7.088;2023-05-16T11:28:11;14.30;99.90
11736;DHT22;5924;51.398;7.088;2023-05-16T11:30:47;14.60;99.90
11736;DHT22;5924;51.398;7.088;2023-05-16T11:33:14;14.90;99.90
11736;DHT22;5924;51.398;7.088;2023-05-16T11:35:40;15.20;99.90
11736;DHT22;5924;51.398;7.088;2023-05-16T11:38:12;15.30;99.90
11736;DHT22;5924;51.398;7.088;2023-05-16T11:40:42;15.20;99.90
11736;DHT22;5924;51.398;7.088;2023-05-16T11:43:07;16.10;99.90
11736;DHT22;5924;51.398;7.088;2023-05-16T11:45:33;15.40;99.90
11736;DHT22;5924;51.398;7.088;2023-05-16T11:48:01;15.20;99.90
11736;DHT22;5924;51.398;7.088;2023-05-16T11:50:28;14.80;99.90
11736;DHT22;5924;51.398;7.088;2023-05-16T11:52:55;14.30;99.90
11736;DHT22;5924;51.398;7.088;2023-05-16T11:55:30;13.80;99.90
11736;DHT22;5924;51.398;7.088;2023-05-16T11:58:00;13.60;99.90
11736;DHT22;5924;51.398;7.088;2023-05-16T12:00:26;13.40;99.90
11736;DHT22;5924;51.398;7.088;2023-05-16T12:02:53;13.40;99.90
11736;DHT22;5924;51.398;7.088;2023-05-16T12:05:20;13.40;99.90
11736;DHT22;5924;51.398;7.088;2023-05-16T12:07:50;13.40;99.90
11736;DHT22;5924;51.398;7.088;2023-05-16T12:10:18;13.80;99.90
11736;DHT22;5924;51.398;7.088;2023-05-16T12:12:50;15.50;99.90
11736;DHT22;5924;51.398;7.088;2023-05-16T12:15:17;15.10;99.90
11736;DHT22;5924;51.398;7.088;2023-05-16T12:17:43;15.50;99.90
11736;DHT22;5924;51.398;7.088;2023-05-16T12:20:10;16.20;99.90
11736;DHT22;5924;51.398;7.088;2023-05-16T12:22:39;16.60;99.90
11736;DHT22;5924;51.398;7.088;2023-05-16T12:25:20;17.10;99.90
11736;DHT22;5924;51.398;7.088;2023-05-16T12:27:46;17.50;99.10
11736;DHT22;5924;51.398;7.088;2023-05-16T12:30:12;16.00;98.70
11736;DHT22;5924;51.398;7.088;2023-05-16T12:32:40;18.00;96.40
11736;DHT22;5924;51.398;7.088;2023-05-16T12:35:06;17.40;96.60
11736;DHT22;5924;51.398;7.088;2023-05-16T12:37:35;16.90;98.50
11736;DHT22;5924;51.398;7.088;2023-05-16T12:40:01;16.10;98.50
11736;DHT22;5924;51.398;7.088;2023-05-16T12:42:28;15.50;98.20
11736;DHT22;5924;51.398;7.088;2023-05-16T12:44:55;14.90;98.60
11736;DHT22;5924;51.398;7.088;2023-05-16T12:47:21;14.50;99.90
11736;DHT22;5924;51.398;7.088;2023-05-16T12:49:47;14.20;99.90
11736;DHT22;5924;51.398;7.088;2023-05-16T12:52:19;14.20;99.90
11736;DHT22;5924;51.398;7.088;2023-05-16T12:54:46;14.50;99.90
11736;DHT22;5924;51.398;7.088;2023-05-16T12:57:12;14.70;99.90
11736;DHT22;5924;51.398;7.088;2023-05-16T12:59:38;15.50;99.90
11736;DHT22;5924;51.398;7.088;2023-05-16T13:02:04;16.10;99.90
11736;DHT22;5924;51.398;7.088;2023-05-16T13:04:30;15.90;99.90
11736;DHT22;5924;51.398;7.088;2023-05-16T13:06:56;15.50;99.90
11736;DHT22;5924;51.398;7.088;2023-05-16T13:09:21;15.10;99.90
11736;DHT22;5924;51.398;7.088;2023-05-16T13:11:48;14.70;99.90
11736;DHT22;5924;51.398;7.088;2023-05-16T13:14:14;14.50;99.90
11736;DHT22;5924;51.398;7.088;2023-05-16T13:16:41;13.90;99.90
11736;DHT22;5924;51.398;7.088;2023-05-16T13:19:08;16.90;99.90
11736;DHT22;5924;51.398;7.088;2023-05-16T13:21:33;18.00;99.90
11736;DHT22;5924;51.398;7.088;2023-05-16T13:23:59;18.90;89.90
11736;DHT22;5924;51.398;7.088;2023-05-16T13:26:25;19.80;90.10
11736;DHT22;5924;51.398;7.088;2023-05-16T13:28:52;20.50;79.60
11736;DHT22;5924;51.398;7.088;2023-05-16T13:31:19;20.70;70.20
11736;DHT22;5924;51.398;7.088;2023-05-16T13:33:46;20.60;71.20
11736;DHT22;5924;51.398;7.088;2023-05-16T13:36:12;21.00;70.40
11736;DHT22;5924;51.398;7.088;2023-05-16T13:38:37;21.30;68.50
11736;DHT22;5924;51.398;7.088;2023-05-16T13:41:03;21.50;70.50
11736;DHT22;5924;51.398;7.088;2023-05-16T13:43:29;20.80;72.30
11736;DHT22;5924;51.398;7.088;2023-05-16T13:45:54;20.30;72.30
11736;DHT22;5924;51.398;7.088;2023-05-16T13:48:21;21.10;76.50
11736;DHT22;5924;51.398;7.088;2023-05-16T13:50:47;22.00;72.40
11736;DHT22;5924;51.398;7.088;2023-05-16T13:53:12;22.00;65.30
11736;DHT22;5924;51.398;7.088;2023-05-16T13:55:38;22.20;69.40
11736;DHT22;5924;51.398;7.088;2023-05-16T13:58:04;22.50;68.90
11736;DHT22;5924;51.398;7.088;2023-05-16T14:00:29;22.90;69.60
11736;DHT22;5924;51.398;7.088;2023-05-16T14:02:55;23.30;63.70
11736;DHT22;5924;51.398;7.088;2023-05-16T14:05:21;23.10;62.50
11736;DHT22;5924;51.398;7.088;2023-05-16T14:07:47;23.10;60.30
11736;DHT22;5924;51.398;7.088;2023-05-16T14:10:13;23.30;58.00
11736;DHT22;5924;51.398;7.088;2023-05-16T14:12:38;22.50;57.10
11736;DHT22;5924;51.398;7.088;2023-05-16T14:15:05;20.70;59.00
11736;DHT22;5924;51.398;7.088;2023-05-16T14:17:31;19.20;61.00
11736;DHT22;5924;51.398;7.088;2023-05-16T14:19:57;18.10;66.90
11736;DHT22;5924;51.398;7.088;2023-05-16T14:22:23;17.50;73.10
11736;DHT22;5924;51.398;7.088;2023-05-16T14:24:48;17.10;73.50
11736;DHT22;5924;51.398;7.088;2023-05-16T14:27:14;16.70;75.30
11736;DHT22;5924;51.398;7.088;2023-05-16T14:29:41;16.10;75.00
11736;DHT22;5924;51.398;7.088;2023-05-16T14:32:09;15.60;76.30
11736;DHT22;5924;51.398;7.088;2023-05-16T14:34:35;15.20;78.00
11736;DHT22;5924;51.398;7.088;2023-05-16T14:37:01;14.80;80.20
11736;DHT22;5924;51.398;7.088;2023-05-16T14:39:26;14.50;83.10
11736;DHT22;5924;51.398;7.088;2023-05-16T14:41:52;14.40;82.90
11736;DHT22;5924;51.398;7.088;2023-05-16T14:44:18;14.30;83.50
11736;DHT22;5924;51.398;7.088;2023-05-16T14:46:46;14.30;85.60
11736;DHT22;5924;51.398;7.088;2023-05-16T14:49:12;14.20;84.60
11736;DHT22;5924;51.398;7.088;2023-05-16T14:51:37;14.30;86.00
11736;DHT22;5924;51.398;7.088;2023-05-16T14:54:03;14.30;85.20
11736;DHT22;5924;51.398;7.088;2023-05-16T14:56:30;14.30;86.80
11736;DHT22;5924;51.398;7.088;2023-05-16T14:58:56;14.40;86.20
11736;DHT22;5924;51.398;7.088;2023-05-16T15:01:22;14.30;87.30
11736;DHT22;5924;51.398;7.088;2023-05-16T15:03:47;14.20;88.70
11736;DHT22;5924;51.398;7.088;2023-05-16T15:06:13;14.10;89.30
11736;DHT22;5924;51.398;7.088;2023-05-16T15:08:38;13.90;89.90
11736;DHT22;5924;51.398;7.088;2023-05-16T15:11:04;13.70;90.90
11736;DHT22;5924;51.398;7.088;2023-05-16T15:13:30;13.60;91.40
11736;DHT22;5924;51.398;7.088;2023-05-16T15:15:56;13.40;91.80
11736;DHT22;5924;51.398;7.088;2023-05-16T15:18:22;13.30;92.60
11736;DHT22;5924;51.398;7.088;2023-05-16T15:20:48;13.30;93.50
11736;DHT22;5924;51.398;7.088;2023-05-16T15:23:16;13.40;93.30
11736;DHT22;5924;51.398;7.088;2023-05-16T15:25:42;13.80;93.80
11736;DHT22;5924;51.398;7.088;2023-05-16T15:28:07;14.00;93.30
11736;DHT22;5924;51.398;7.088;2023-05-16T15:30:33;14.10;93.20
11736;DHT22;5924;51.398;7.088;2023-05-16T15:32:59;14.20;93.60
11736;DHT22;5924;51.398;7.088;2023-05-16T15:35:25;14.20;93.90
11736;DHT22;5924;51.398;7.088;2023-05-16T15:37:51;12.60;94.10
11736;DHT22;5924;51.398;7.088;2023-05-16T15:40:17;13.80;95.50
11736;DHT22;5924;51.398;7.088;2023-05-16T15:42:43;13.70;96.30
11736;DHT22;5924;51.398;7.088;2023-05-16T15:45:10;13.50;97.10
11736;DHT22;5924;51.398;7.088;2023-05-16T15:47:36;13.40;97.80
11736;DHT22;5924;51.398;7.088;2023-05-16T15:50:02;13.40;98.30
11736;DHT22;5924;51.398;7.088;2023-05-16T15:52:28;13.40;99.90
11736;DHT22;5924;51.398;7.088;2023-05-16T15:54:53;13.40;99.00
11736;DHT22;5924;51.398;7.088;2023-05-16T15:57:19;13.30;99.90
11736;DHT22;5924;51.398;7.088;2023-05-16T15:59:45;13.50;99.90
11736;DHT22;5924;51.398;7.088;2023-05-16T16:02:10;13.60;99.90
11736;DHT22;5924;51.398;7.088;2023-05-16T16:04:36;13.70;99.90
11736;DHT22;5924;51.398;7.088;2023-05-16T16:07:02;14.00;99.90
11736;DHT22;5924;51.398;7.088;2023-05-16T16:09:28;14.70;99.90
11736;DHT22;5924;51.398;7.088;2023-05-16T16:11:54;15.20;98.30
11736;DHT22;5924;51.398;7.088;2023-05-16T16:14:22;15.20;98.20